Time;durP1;ratioP1;P1;durP2;ratioP2;P2;SDS_P1;SDS_P2;PMS_P1;PMS_P2;Temp;Humidity;BMP_temperature;BMP_pressure;BME280_temperature;BME280_humidity;BME280_pressure;Samples;Min_cycle;Max_cycle;Signal;HPM_P1;HPM_P2
2023/05/11 00:02:14;;;;;;;1999.90;999.90;;;;;;;11.29;100.00;97527.59;5012365;28;20037;-73
2023/05/11 00:04:39;;;;;;;1999.90;999.90;;;;;;;11.31;100.00;97521.81;5012759;28;20057;-73
2023/05/11 00:07:04;;;;;;;1999.90;999.90;;;;;;;11.24;100.00;97520.28;5012382;28;20075;-73
2023/05/11 00:09:30;;;;;;;1999.90;999.90;;;;;;;11.24;100.00;97520.28;5030100;28;20056;-73
2023/05/11 00:11:55;;;;;;;1999.90;999.90;;;;;;;11.27;100.00;97513.41;5030388;28;20030;-73
2023/05/11 00:14:21;;;;;;;1999.90;999.90;;;;;;;11.11;100.00;97501.19;5030438;28;20120;-73
2023/05/11 00:16:46;;;;;;;1999.90;999.90;;;;;;;11.11;100.00;97504.75;5030315;28;20479;-73
2023/05/11 00:19:11;;;;;;;1999.90;999.90;;;;;;;11.12;100.00;97498.13;5030336;28;20079;-73
2023/05/11 00:21:37;;;;;;;1999.90;999.90;;;;;;;11.19;100.00;97495.78;5030465;28;20482;-72
2023/05/11 00:24:02;;;;;;;1999.90;999.90;;;;;;;11.19;100.00;97492.22;5030452;28;20036;-72
2023/05/11 00:26:27;;;;;;;1999.90;999.90;;;;;;;11.07;100.00;97487.31;5030537;28;20425;-73
2023/05/11 00:28:53;;;;;;;1999.90;999.90;;;;;;;11.18;100.00;97493.38;5030396;28;20021;-73
2023/05/11 00:31:18;;;;;;;1999.90;999.90;;;;;;;11.13;100.00;97472.38;5030236;28;20025;-73
2023/05/11 00:33:44;;;;;;;1999.90;999.90;;;;;;;11.19;100.00;97475.81;5030208;28;20117;-73
2023/05/11 00:36:09;;;;;;;1999.90;999.90;;;;;;;11.12;100.00;97464.50;5030270;28;20497;-73
2023/05/11 00:38:35;;;;;;;1999.90;999.90;;;;;;;11.17;100.00;97467.09;5030110;28;20045;-72
2023/05/11 00:41:02;;;;;;;1999.90;999.90;;;;;;;11.21;100.00;97470.84;5030453;28;20049;-72
2023/05/11 00:43:27;;;;;;;1999.90;999.90;;;;;;;11.18;100.00;97466.00;5030333;28;20025;-72
2023/05/11 00:45:52;;;;;;;1999.90;999.90;;;;;;;11.28;100.00;97471.19;5016285;28;20021;-73
2023/05/11 00:48:17;;;;;;;1999.90;999.90;;;;;;;11.27;100.00;97458.66;5016288;28;20065;-73
2023/05/11 00:50:45;;;;;;;1999.90;999.90;;;;;;;11.33;100.00;97467.53;5016436;28;20030;-73
2023/05/11 00:53:10;;;;;;;1999.90;999.90;;;;;;;11.29;100.00;97459.13;5033844;28;20076;-73
2023/05/11 00:55:37;;;;;;;1999.90;999.90;;;;;;;11.23;100.00;97447.50;5034257;28;20038;-72
2023/05/11 00:58:04;;;;;;;1999.90;999.90;;;;;;;11.22;100.00;97459.56;5034097;28;20034;-72
2023/05/11 01:00:30;;;;;;;1999.90;999.90;;;;;;;11.21;100.00;97459.91;5034707;28;20033;-72
2023/05/11 01:02:56;;;;;;;1999.90;999.90;;;;;;;11.12;100.00;97457.06;5036070;28;20037;-72
2023/05/11 01:05:24;;;;;;;1999.90;999.90;;;;;;;11.11;100.00;97446.47;5033331;28;20390;-72
2023/05/11 01:07:49;;;;;;;1999.90;999.90;;;;;;;11.18;100.00;97442.16;5033661;28;20037;-73
2023/05/11 01:10:32;;;;;;;1999.90;999.90;;;;;;;11.17;100.00;97442.47;5033828;28;20026;-73
2023/05/11 01:13:04;;;;;;;1999.90;999.90;;;;;;;11.21;100.00;97451.69;5033628;28;20371;-73
2023/05/11 01:15:55;;;;;;;1999.90;999.90;;;;;;;11.21;100.00;97451.69;5034331;28;20497;-73
2023/05/11 01:18:32;;;;;;;1999.90;999.90;;;;;;;11.28;100.00;97449.28;5026196;28;20395;-72
2023/05/11 01:21:00;;;;;;;1999.90;999.90;;;;;;;11.17;100.00;97442.47;5033324;28;20069;-72
2023/05/11 01:23:41;;;;;;;1999.90;999.90;;;;;;;11.28;100.00;97452.84;5033426;28;20026;-73
2023/05/11 01:26:25;;;;;;;1999.90;999.90;;;;;;;11.26;100.00;97444.16;5033537;28;20439;-72
2023/05/11 01:29:09;;;;;;;1999.90;999.90;;;;;;;11.14;100.00;97437.63;5033408;28;20083;-72
2023/05/11 01:31:39;;;;;;;1999.90;999.90;;;;;;;11.12;100.00;97439.88;5033350;28;20394;-73
2023/05/11 01:34:09;;;;;;;1999.90;999.90;;;;;;;11.13;100.00;97439.53;5033569;28;20461;-73
2023/05/11 01:36:39;;;;;;;1999.90;999.90;;;;;;;11.11;100.00;97433.59;5033558;28;20033;-72
2023/05/11 01:39:08;;;;;;;1999.90;999.90;;;;;;;11.16;100.00;97438.09;5036783;28;20432;-73
2023/05/11 01:41:37;;;;;;;1999.90;999.90;;;;;;;11.11;100.00;97432.78;5053071;28;20024;-73
2023/05/11 01:44:06;;;;;;;1999.90;999.90;;;;;;;11.12;100.00;97432.44;5053329;28;20111;-73
2023/05/11 01:46:33;;;;;;;1999.90;999.90;;;;;;;11.20;100.00;97439.09;5053379;28;20029;-75
2023/05/11 01:49:01;;;;;;;1999.90;999.90;;;;;;;11.22;100.00;97434.13;5052961;28;20036;-73
2023/05/11 01:51:32;;;;;;;1999.90;999.90;;;;;;;11.25;100.00;97434.31;5053053;28;20037;-72
2023/05/11 01:53:59;;;;;;;1999.90;999.90;;;;;;;11.16;100.00;97430.72;5052898;28;20469;-74
2023/05/11 01:56:26;;;;;;;1999.90;999.90;;;;;;;11.17;100.00;97434.25;5051923;28;20037;-73
2023/05/11 01:58:54;;;;;;;1999.90;999.90;;;;;;;11.14;100.00;97427.50;5052646;28;20029;-73
2023/05/11 02:01:20;;;;;;;1999.90;999.90;;;;;;;11.08;100.00;97423.25;5052604;28;20559;-72
2023/05/11 02:03:46;;;;;;;1999.90;999.90;;;;;;;11.05;100.00;97429.34;5052637;28;20413;-72
2023/05/11 02:06:14;;;;;;;1999.90;999.90;;;;;;;11.10;100.00;97431.97;5034788;28;20029;-73
2023/05/11 02:08:40;;;;;;;1999.90;999.90;;;;;;;11.12;100.00;97418.75;5052599;28;20499;-73
2023/05/11 02:11:07;;;;;;;1999.90;999.90;;;;;;;11.13;100.00;97414.09;5052746;28;20520;-72
2023/05/11 02:13:34;;;;;;;1999.90;999.90;;;;;;;11.18;100.00;97422.19;5034793;28;20037;-74
2023/05/11 02:16:01;;;;;;;1999.90;999.90;;;;;;;11.13;100.00;97425.03;5052950;28;20021;-72
2023/05/11 02:18:28;;;;;;;1999.90;999.90;;;;;;;11.16;100.00;97414.28;5052355;28;20101;-73
2023/05/11 02:20:55;;;;;;;1999.90;999.90;;;;;;;11.20;100.00;97407.06;5052409;28;20469;-72
2023/05/11 02:23:23;;;;;;;1999.90;999.90;;;;;;;11.19;100.00;97413.66;5052437;28;20041;-72
2023/05/11 02:25:51;;;;;;;1999.90;999.90;;;;;;;11.21;100.00;97416.09;5052205;28;20075;-73
2023/05/11 02:28:17;;;;;;;1999.90;999.90;;;;;;;11.22;100.00;97410.28;5052219;28;20118;-73
2023/05/11 02:30:48;;;;;;;1999.90;999.90;;;;;;;11.21;100.00;97405.16;5052499;28;20112;-73
2023/05/11 02:33:21;;;;;;;1999.90;999.90;;;;;;;11.17;100.00;97409.63;5052045;28;20035;-72
2023/05/11 02:35:49;;;;;;;1999.90;999.90;;;;;;;11.20;100.00;97411.72;5052105;28;20454;-72
2023/05/11 02:38:16;;;;;;;1999.90;999.90;;;;;;;11.16;100.00;97399.78;5052128;28;20025;-73
2023/05/11 02:40:46;;;;;;;1999.90;999.90;;;;;;;11.17;100.00;97410.44;5051753;28;20060;-72
2023/05/11 02:43:14;;;;;;;1999.90;999.90;;;;;;;11.15;100.00;97404.44;5052022;28;20037;-72
2023/05/11 02:45:43;;;;;;;1999.90;999.90;;;;;;;11.19;100.00;97410.09;5052417;28;20124;-73
2023/05/11 02:48:20;;;;;;;1999.90;999.90;;;;;;;11.10;100.00;97404.59;5051940;28;20457;-73
2023/05/11 02:50:46;;;;;;;1999.90;999.90;;;;;;;11.08;100.00;97400.56;5051888;28;20029;-72
2023/05/11 02:53:16;;;;;;;1999.90;999.90;;;;;;;11.08;100.00;97406.84;5051567;28;20036;-73
2023/05/11 02:55:41;;;;;;;1999.90;999.90;;;;;;;11.07;100.00;97409.88;5051738;28;20486;-73
2023/05/11 02:58:07;;;;;;;1999.90;999.90;;;;;;;11.15;100.00;97403.66;5051750;28;20060;-73
2023/05/11 03:00:33;;;;;;;1999.90;999.90;;;;;;;11.16;100.00;97408.00;5051794;28;20033;-73
2023/05/11 03:02:58;;;;;;;1999.90;999.90;;;;;;;11.24;100.00;97404.53;5051736;28;20025;-73
2023/05/11 03:05:24;;;;;;;1999.90;999.90;;;;;;;11.20;100.00;97400.78;5051702;28;20029;-73
2023/05/11 03:07:52;;;;;;;1999.90;999.90;;;;;;;11.23;100.00;97398.22;5052621;28;20032;-74
2023/05/11 03:10:17;;;;;;;1999.90;999.90;;;;;;;11.25;100.00;97397.91;5056574;28;20413;-75
2023/05/11 03:12:44;;;;;;;1999.90;999.90;;;;;;;11.32;100.00;97398.28;5052207;28;20021;-73
2023/05/11 03:15:11;;;;;;;1999.90;999.90;;;;;;;11.25;100.00;97395.97;5051760;28;20040;-72
2023/05/11 03:17:38;;;;;;;1999.90;999.90;;;;;;;11.27;100.00;97393.75;5051730;28;20366;-73
2023/05/11 03:20:06;;;;;;;1999.90;999.90;;;;;;;11.24;100.00;97401.78;5027360;28;20091;-73
2023/05/11 03:22:33;;;;;;;1999.90;999.90;;;;;;;11.23;100.00;97398.22;5002190;28;20032;-73
2023/05/11 03:25:01;;;;;;;1999.90;999.90;;;;;;;11.32;100.00;97409.22;5031266;28;20207;-73
2023/05/11 03:27:28;;;;;;;1999.90;999.90;;;;;;;11.26;100.00;97396.78;5017032;28;20041;-73
2023/05/11 03:29:54;;;;;;;1999.90;999.90;;;;;;;11.26;100.00;97399.53;5011018;28;20049;-73
2023/05/11 03:32:20;;;;;;;1999.90;999.90;;;;;;;11.27;100.00;97404.72;5011004;28;20049;-73
2023/05/11 03:34:45;;;;;;;1999.90;999.90;;;;;;;11.29;100.00;97407.13;5010770;28;20157;-72
2023/05/11 03:37:13;;;;;;;1999.90;999.90;;;;;;;11.31;100.00;97398.59;5010900;28;20038;-72
2023/05/11 03:39:41;;;;;;;1999.90;999.90;;;;;;;11.34;100.00;97403.47;5024593;28;20041;-73
2023/05/11 03:42:07;;;;;;;1999.90;999.90;;;;;;;11.36;100.00;97396.53;5030912;28;20558;-73
2023/05/11 03:44:33;;;;;;;1999.90;999.90;;;;;;;11.27;100.00;97403.91;5030754;28;20020;-73
2023/05/11 03:47:00;;;;;;;1999.90;999.90;;;;;;;11.32;100.00;97405.69;5030989;28;20349;-72
2023/05/11 03:49:26;;;;;;;1999.90;999.90;;;;;;;11.30;100.00;97403.28;5030477;28;20053;-73
2023/05/11 03:51:52;;;;;;;1999.90;999.90;;;;;;;11.32;100.00;97409.22;5030546;28;20490;-72
2023/05/11 03:54:18;;;;;;;1999.90;999.90;;;;;;;11.25;100.00;97401.47;5030468;28;20080;-73
2023/05/11 03:56:43;;;;;;;1999.90;999.90;;;;;;;11.31;100.00;97401.34;5030426;28;20029;-72
2023/05/11 03:59:14;;;;;;;1999.90;999.90;;;;;;;11.28;100.00;97406.31;5030576;28;20039;-73
2023/05/11 04:01:41;;;;;;;1999.90;999.90;;;;;;;11.32;100.00;97405.69;5030239;28;20068;-72
2023/05/11 04:04:06;;;;;;;1999.90;999.90;;;;;;;11.34;100.00;97401.50;5030301;28;20438;-73
2023/05/11 04:06:32;;;;;;;1999.90;999.90;;;;;;;11.31;100.00;97404.88;5030129;28;20120;-74
2023/05/11 04:08:57;;;;;;;1999.90;999.90;;;;;;;11.32;100.00;97406.50;5030254;28;20021;-73
2023/05/11 04:11:22;;;;;;;1999.90;999.90;;;;;;;11.32;100.00;97413.91;5030179;28;20819;-73
2023/05/11 04:13:47;;;;;;;1999.90;999.90;;;;;;;11.28;100.00;97400.84;5030151;28;20079;-73
2023/05/11 04:16:13;;;;;;;1999.90;999.90;;;;;;;11.29;100.00;97396.16;5015993;28;20036;-73
2023/05/11 04:18:38;;;;;;;1999.90;999.90;;;;;;;11.40;100.00;97403.00;5010150;28;20018;-74
2023/05/11 04:21:05;;;;;;;1999.90;999.90;;;;;;;11.30;100.00;97386.84;5010227;28;20038;-73
2023/05/11 04:23:30;;;;;;;1999.90;999.90;;;;;;;11.41;100.00;97403.78;5010389;28;20034;-73
2023/05/11 04:25:55;;;;;;;1999.90;999.90;;;;;;;11.41;100.00;97403.78;5010275;28;20030;-72
2023/05/11 04:28:26;;;;;;;1999.90;999.90;;;;;;;11.41;100.00;97404.59;5010133;28;20125;-72
2023/05/11 04:30:53;;;;;;;1999.90;999.90;;;;;;;11.42;100.00;97397.19;5010165;28;20418;-73
2023/05/11 04:33:22;;;;;;;1999.90;999.90;;;;;;;11.52;100.00;97400.50;5010575;28;20112;-72
2023/05/11 04:35:51;;;;;;;1999.90;999.90;;;;;;;11.47;100.00;97408.81;5010763;28;20057;-73
2023/05/11 04:38:17;;;;;;;1999.90;999.90;;;;;;;11.50;100.00;97408.19;5010080;28;20056;-72
2023/05/11 04:40:43;;;;;;;1999.90;999.90;;;;;;;11.48;100.00;97404.97;5010224;28;20391;-73
2023/05/11 04:43:08;;;;;;;1999.90;999.90;;;;;;;11.36;100.00;97402.00;5010149;28;20120;-73
2023/05/11 04:45:33;;;;;;;1999.90;999.90;;;;;;;11.45;100.00;97402.88;4992376;28;20040;-72
2023/05/11 04:47:59;;;;;;;1999.90;999.90;;;;;;;11.55;100.00;97408.06;5009898;28;20025;-73
2023/05/11 04:50:24;;;;;;;1999.90;999.90;;;;;;;11.59;100.00;97400.81;5011227;28;20117;-71
2023/05/11 04:52:50;;;;;;;1999.90;999.90;;;;;;;11.59;100.00;97411.78;5025933;28;20108;-70
2023/05/11 04:55:16;;;;;;;1999.90;999.90;;;;;;;11.56;100.00;97404.19;5029207;28;20029;-70
2023/05/11 04:57:41;;;;;;;1999.90;999.90;;;;;;;11.45;100.00;97391.91;5012274;28;20763;-79
2023/05/11 05:00:07;;;;;;;1999.90;999.90;;;;;;;11.49;100.00;97395.66;5011213;28;20466;-77
2023/05/11 05:02:33;;;;;;;1999.90;999.90;;;;;;;11.56;100.00;97404.19;5019977;28;20033;-78
2023/05/11 05:04:59;;;;;;;1999.90;999.90;;;;;;;11.60;100.00;97396.97;5021736;28;20022;-78
2023/05/11 05:07:25;;;;;;;1999.90;999.90;;;;;;;11.65;100.00;97407.78;5019097;28;20076;-77
2023/05/11 05:09:51;;;;;;;1999.90;999.90;;;;;;;11.66;100.00;97395.72;5023683;28;20076;-82
2023/05/11 05:12:16;;;;;;;1999.90;999.90;;;;;;;11.65;100.00;97402.31;5022397;28;20029;-78
2023/05/11 05:14:41;;;;;;;1999.90;999.90;;;;;;;11.62;100.00;97410.38;5031033;28;20033;-79
2023/05/11 05:17:07;;;;;;;1999.90;999.90;;;;;;;11.57;100.00;97407.75;5032772;28;20025;-83
2023/05/11 05:19:32;;;;;;;1999.90;999.90;;;;;;;11.73;100.00;97412.53;5018327;28;20033;-83
2023/05/11 05:21:57;;;;;;;1999.90;999.90;;;;;;;11.73;100.00;97406.25;5036281;28;20037;-83
2023/05/11 05:24:23;;;;;;;1999.90;999.90;;;;;;;11.77;100.00;97412.72;5037754;28;20022;-74
2023/05/11 05:26:48;;;;;;;1999.90;999.90;;;;;;;11.80;100.00;97412.91;5019961;28;20036;-74
2023/05/11 05:29:13;;;;;;;1999.90;999.90;;;;;;;11.81;100.00;97417.22;5028161;28;20390;-74
2023/05/11 05:31:38;;;;;;;1999.90;999.90;;;;;;;11.81;100.00;97414.50;5018471;28;20112;-73
2023/05/11 05:34:04;;;;;;;1999.90;999.90;;;;;;;11.90;100.00;97421.97;5020895;28;20022;-74
2023/05/11 05:36:30;;;;;;;1999.90;999.90;;;;;;;11.85;100.00;97416.59;5027875;28;20041;-74
2023/05/11 05:38:55;;;;;;;1999.90;999.90;;;;;;;11.84;100.00;97412.25;5003944;28;20048;-73
2023/05/11 05:41:21;;;;;;;1999.90;999.90;;;;;;;11.87;100.00;97414.38;5020714;28;20042;-74
2023/05/11 05:43:47;;;;;;;1999.90;999.90;;;;;;;11.90;100.00;97420.03;5031100;28;20033;-73
2023/05/11 05:46:13;;;;;;;1999.90;999.90;;;;;;;11.84;100.00;97417.75;5014307;28;20390;-74
2023/05/11 05:48:38;;;;;;;1999.90;999.90;;;;;;;11.89;100.00;97414.84;5032633;28;20065;-74
2023/05/11 05:51:04;;;;;;;1999.90;999.90;;;;;;;11.95;100.00;97427.28;5031999;28;20049;-74
2023/05/11 05:53:29;;;;;;;1999.90;999.90;;;;;;;11.90;100.00;97422.78;5031597;28;20029;-74
2023/05/11 05:55:54;;;;;;;1999.90;999.90;;;;;;;11.82;100.00;97410.63;5032511;28;20030;-75
2023/05/11 05:58:20;;;;;;;1999.90;999.90;;;;;;;11.90;100.00;97424.69;5014711;28;20091;-74
2023/05/11 06:00:45;;;;;;;1999.90;999.90;;;;;;;11.78;100.00;97419.78;5032638;28;20030;-75
2023/05/11 06:03:11;;;;;;;1999.90;999.90;;;;;;;11.85;100.00;97430.28;5032639;28;20109;-75
2023/05/11 06:05:36;;;;;;;1999.90;999.90;;;;;;;11.82;100.00;97423.53;5032874;28;20033;-74
2023/05/11 06:08:01;;;;;;;1999.90;999.90;;;;;;;11.74;100.00;97418.81;5015221;28;20056;-74
2023/05/11 06:10:27;;;;;;;1999.90;999.90;;;;;;;11.86;100.00;97424.50;5032631;28;20057;-75
2023/05/11 06:12:52;;;;;;;1999.90;999.90;;;;;;;11.76;100.00;97428.34;5033027;28;20479;-74
2023/05/11 06:15:17;;;;;;;1999.90;999.90;;;;;;;11.74;100.00;97414.16;5033139;28;20083;-75
2023/05/11 06:17:43;;;;;;;1999.90;999.90;;;;;;;11.84;100.00;97420.47;5014560;28;20121;-75
2023/05/11 06:20:08;;;;;;;1999.90;999.90;;;;;;;11.86;100.00;97426.44;5032132;28;20081;-75
2023/05/11 06:22:34;;;;;;;1999.90;999.90;;;;;;;11.81;100.00;97414.50;5032579;28;20040;-74
2023/05/11 06:24:59;;;;;;;1999.90;999.90;;;;;;;12.00;100.00;97427.13;5032237;28;20494;-75
2023/05/11 06:27:25;;;;;;;1999.90;999.90;;;;;;;11.90;100.00;97417.28;5032117;28;20026;-74
2023/05/11 06:29:50;;;;;;;1999.90;999.90;;;;;;;11.94;100.00;97426.47;5031888;28;20026;-75
2023/05/11 06:32:16;;;;;;;1999.90;999.90;;;;;;;11.86;100.00;97430.00;5032076;28;20037;-74
2023/05/11 06:34:41;;;;;;;1999.90;999.90;;;;;;;11.91;100.00;97437.25;5031938;28;20556;-73
2023/05/11 06:37:06;;;;;;;1999.90;999.90;;;;;;;11.89;100.00;97428.56;5014166;28;20014;-73
2023/05/11 06:39:36;;;;;;;1999.90;999.90;;;;;;;11.84;100.00;97439.66;5031995;28;20064;-73
2023/05/11 06:42:02;;;;;;;1999.90;999.90;;;;;;;11.89;100.00;97437.59;5031755;28;20025;-73
2023/05/11 06:44:27;;;;;;;1999.90;999.90;;;;;;;11.96;100.00;97442.63;5032039;28;20025;-73
2023/05/11 06:46:53;;;;;;;1999.90;999.90;;;;;;;11.97;100.00;97428.56;5031995;28;20120;-73
2023/05/11 06:49:18;;;;;;;1999.90;999.90;;;;;;;12.06;100.00;97429.41;5032196;28;20036;-76
2023/05/11 06:51:43;;;;;;;1999.90;999.90;;;;;;;12.09;100.00;97425.25;5032026;28;20033;-75
2023/05/11 06:54:09;;;;;;;1999.90;999.90;;;;;;;12.22;100.00;97432.53;5031992;28;20033;-74
2023/05/11 06:56:34;;;;;;;1999.90;999.90;;;;;;;12.22;100.00;97432.53;5032025;28;20171;-73
2023/05/11 06:58:59;;;;;;;1999.90;999.90;;;;;;;12.07;100.00;97422.81;5031683;28;20079;-74
2023/05/11 07:01:25;;;;;;;1999.90;999.90;;;;;;;12.10;100.00;97419.44;5031731;28;20029;-74
2023/05/11 07:03:53;;;;;;;1999.90;999.90;;;;;;;12.13;100.00;97426.22;5031845;28;20084;-74
2023/05/11 07:06:18;;;;;;;1999.90;999.90;;;;;;;12.16;100.00;97420.09;5031675;28;20025;-74
2023/05/11 07:08:44;;;;;;;1999.90;999.90;;;;;;;12.14;100.00;97423.16;5031648;28;20025;-74
2023/05/11 07:11:11;;;;;;;1999.90;999.90;;;;;;;12.13;100.00;97415.25;5031421;28;20115;-75
2023/05/11 07:13:37;;;;;;;1999.90;999.90;;;;;;;12.18;100.00;97417.84;5031458;28;20022;-74
2023/05/11 07:16:02;;;;;;;1999.90;999.90;;;;;;;12.19;100.00;97420.25;5014128;28;20029;-74
2023/05/11 07:18:27;;;;;;;1999.90;999.90;;;;;;;12.09;100.00;97419.75;5031093;28;20043;-74
2023/05/11 07:20:53;;;;;;;1999.90;999.90;;;;;;;12.03;100.00;97410.06;5031213;28;20030;-74
2023/05/11 07:23:18;;;;;;;1999.90;999.90;;;;;;;12.09;100.00;97414.28;5032881;28;20022;-75
2023/05/11 07:25:43;;;;;;;1999.90;999.90;;;;;;;12.07;100.00;97417.31;5034835;28;20037;-75
2023/05/11 07:28:09;;;;;;;1999.90;999.90;;;;;;;12.09;100.00;97425.25;5013852;28;20364;-74
2023/05/11 07:30:34;;;;;;;1999.90;999.90;;;;;;;12.02;100.00;97420.22;5013313;28;20057;-76
2023/05/11 07:32:59;;;;;;;1999.90;999.90;;;;;;;12.02;100.00;97408.44;5031068;28;20094;-73
2023/05/11 07:35:25;;;;;;;1999.90;999.90;;;;;;;11.93;100.00;97394.72;5031121;28;20032;-75
2023/05/11 07:37:50;;;;;;;1999.90;999.90;;;;;;;12.09;100.00;97419.75;5031029;28;20025;-74
2023/05/11 07:40:16;;;;;;;1999.90;999.90;;;;;;;12.13;100.00;97415.25;5030931;28;20049;-73
2023/05/11 07:42:41;;;;;;;1999.90;999.90;;;;;;;12.23;100.00;97414.94;5030637;28;20083;-75
2023/05/11 07:45:08;;;;;;;1999.90;999.90;;;;;;;12.21;100.00;97409.81;5030919;28;20080;-73
2023/05/11 07:47:33;;;;;;;1999.90;999.90;;;;;;;12.16;100.00;97398.16;5031330;28;20049;-74
2023/05/11 07:49:58;;;;;;;1999.90;999.90;;;;;;;12.23;100.00;97412.22;5030781;28;20440;-75
2023/05/11 07:52:24;;;;;;;1999.90;999.90;;;;;;;12.23;100.00;97423.19;5030815;28;20379;-74
2023/05/11 07:54:49;;;;;;;1999.90;999.90;;;;;;;12.20;100.00;97421.06;5030319;28;20112;-73
2023/05/11 07:57:15;;;;;;;1999.90;999.90;;;;;;;12.20;100.00;97410.09;5030731;28;20021;-74
2023/05/11 07:59:41;;;;;;;1999.90;999.90;;;;;;;12.22;100.00;97413.31;5013068;28;20116;-73
2023/05/11 08:02:08;;;;;;;1999.90;999.90;;;;;;;12.33;100.00;97428.38;5012835;28;20029;-75
2023/05/11 08:04:33;;;;;;;1999.90;999.90;;;;;;;12.23;100.00;97429.47;5030368;28;20028;-74
2023/05/11 08:06:59;;;;;;;1999.90;999.90;;;;;;;12.11;100.00;97423.00;5030504;28;20026;-75
2023/05/11 08:09:24;;;;;;;1999.90;999.90;;;;;;;11.97;100.00;97416.81;5012922;28;20036;-74
2023/05/11 08:11:50;;;;;;;1999.90;999.90;;;;;;;12.04;100.00;97423.44;5030593;28;20071;-75
2023/05/11 08:14:15;;;;;;;1999.90;999.90;;;;;;;12.01;100.00;97417.78;5030402;28;20116;-74
2023/05/11 08:16:41;;;;;;;1999.90;999.90;;;;;;;11.94;100.00;97420.19;5030976;28;20026;-74
2023/05/11 08:19:07;;;;;;;1999.90;999.90;;;;;;;12.00;100.00;97422.47;5030584;28;20041;-74
2023/05/11 08:21:32;;;;;;;1999.90;999.90;;;;;;;12.02;100.00;97430.38;5030222;28;20095;-77
2023/05/11 08:23:58;;;;;;;1999.90;999.90;;;;;;;11.78;100.00;97420.59;5030454;28;20022;-75
2023/05/11 08:26:23;;;;;;;1999.90;999.90;;;;;;;11.75;100.00;97426.72;5030432;28;20105;-74
2023/05/11 08:28:50;;;;;;;1999.90;999.90;;;;;;;11.81;100.00;97436.41;5030404;28;20117;-74
2023/05/11 08:31:17;;;;;;;1999.90;999.90;;;;;;;11.76;100.00;97419.31;5030449;28;20272;-74
2023/05/11 08:33:43;;;;;;;1999.90;999.90;;;;;;;11.76;100.00;97430.28;5030393;28;20474;-74
2023/05/11 08:36:09;;;;;;;1999.90;999.90;;;;;;;11.77;100.00;97435.44;5030446;28;20029;-74
2023/05/11 08:38:35;;;;;;;1999.90;999.90;;;;;;;11.67;100.00;97424.72;5012556;28;20503;-73
2023/05/11 08:41:01;;;;;;;1999.90;999.90;;;;;;;11.76;100.00;97433.81;5030607;28;20072;-74
2023/05/11 08:43:27;;;;;;;1999.90;999.90;;;;;;;11.61;100.00;97416.97;5030900;28;20433;-74
2023/05/11 08:45:59;;;;;;;1999.90;999.90;;;;;;;11.78;100.00;97428.00;5030496;28;20172;-74
2023/05/11 08:48:25;;;;;;;1999.90;999.90;;;;;;;11.93;100.00;97418.59;5030763;28;20032;-74
2023/05/11 08:50:51;;;;;;;1999.90;999.90;;;;;;;11.97;100.00;97419.53;5012519;28;20030;-74
2023/05/11 08:53:16;;;;;;;1999.90;999.90;;;;;;;12.12;100.00;97399.94;5030590;28;20033;-74
2023/05/11 08:55:42;;;;;;;1999.90;999.90;;;;;;;12.11;100.00;97412.03;5029985;28;20037;-74
2023/05/11 08:58:09;;;;;;;1999.90;999.90;;;;;;;12.04;100.00;97411.66;5030085;28;20045;-74
2023/05/11 09:00:35;;;;;;;1999.90;999.90;;;;;;;11.97;100.00;97408.56;5030137;28;20486;-74
2023/05/11 09:03:02;;;;;;;1999.90;999.90;;;;;;;11.98;100.00;97408.28;5030206;28;20021;-75
2023/05/11 09:05:29;;;;;;;1999.90;999.90;;;;;;;11.80;100.00;97390.97;5031468;28;20037;-74
2023/05/11 09:07:59;;;;;;;1999.90;999.90;;;;;;;11.87;100.00;97411.63;5033980;28;20017;-74
2023/05/11 09:10:24;;;;;;;1999.90;999.90;;;;;;;11.97;100.00;97416.81;5033989;28;20112;-74
2023/05/11 09:12:50;;;;;;;1999.90;999.90;;;;;;;11.97;100.00;97406.66;5033742;28;20613;-75
2023/05/11 09:15:15;;;;;;;1999.90;999.90;;;;;;;12.01;100.00;97412.31;5033594;28;20486;-74
2023/05/11 09:17:40;;;;;;;1999.90;999.90;;;;;;;12.03;100.00;97399.09;5016479;28;20043;-74
2023/05/11 09:20:08;;;;;;;1999.90;999.90;;;;;;;12.18;100.00;97395.91;5033728;28;20033;-74
2023/05/11 09:22:39;;;;;;;1999.90;999.90;;;;;;;12.33;100.00;97407.25;5033581;28;20048;-73
2023/05/11 09:25:05;;;;;;;1999.90;999.90;;;;;;;12.40;100.00;97403.22;5033687;28;20034;-73
2023/05/11 09:27:31;;;;;;;1999.90;999.90;;;;;;;12.41;100.00;97388.34;5033597;28;20028;-74
2023/05/11 09:30:09;;;;;;;1999.90;999.90;;;;;;;12.28;100.00;97401.06;5033774;28;20487;-74
2023/05/11 09:33:01;;;;;;;1999.90;999.90;;;;;;;12.23;100.00;97393.00;5036279;28;20422;-75
2023/05/11 09:35:32;;;;;;;1999.90;999.90;;;;;;;12.24;100.00;97391.91;5034855;28;20119;-74
2023/05/11 09:38:08;;;;;;;1999.90;999.90;;;;;;;12.34;100.00;97394.34;5033315;28;20025;-73
2023/05/11 09:40:45;;;;;;;1999.90;999.90;;;;;;;12.33;100.00;97398.19;5032999;28;20057;-74
2023/05/11 09:43:17;;;;;;;1999.90;999.90;;;;;;;12.44;100.00;97395.94;5033111;28;20079;-74
2023/05/11 09:45:44;;;;;;;1999.90;999.90;;;;;;;12.42;100.00;97407.25;5033267;28;20141;-74
2023/05/11 09:48:30;;;;;;;1999.90;999.90;;;;;;;12.50;100.00;97403.69;5033750;28;20502;-74
2023/05/11 09:51:02;;;;;;;1999.90;999.90;;;;;;;12.55;100.00;97405.50;5033091;28;20025;-74
2023/05/11 09:53:42;;;;;;;1999.90;999.90;;;;;;;12.45;100.00;97411.28;5015300;28;20040;-74
2023/05/11 09:56:08;;;;;;;1999.90;999.90;;;;;;;12.32;100.00;97411.09;5032764;28;20383;-74
2023/05/11 09:58:56;;;;;;;1999.90;999.90;;;;;;;12.17;100.00;97413.47;5032956;28;20038;-74
2023/05/11 10:01:31;;;;;;;1999.90;999.90;;;;;;;12.14;100.00;97403.16;5032871;28;20533;-74
2023/05/11 10:03:58;;;;;;;1999.90;999.90;;;;;;;12.23;100.00;97407.53;5032908;28;20506;-74
2023/05/11 10:06:24;;;;;;;1999.90;999.90;;;;;;;12.24;100.00;97406.41;5032657;28;20034;-74
2023/05/11 10:08:50;;;;;;;1999.90;999.90;;;;;;;12.28;100.00;97404.63;5032708;28;20032;-74
2023/05/11 10:11:16;;;;;;;1999.90;999.90;;;;;;;12.16;100.00;97395.41;5014873;28;20033;-73
2023/05/11 10:13:43;;;;;;;1999.90;999.90;;;;;;;12.31;100.00;97394.94;5032683;28;20064;-74
2023/05/11 10:16:10;;;;;;;1999.90;999.90;;;;;;;12.19;100.00;97398.31;5014870;28;20387;-74
2023/05/11 10:18:36;;;;;;;1999.90;999.90;;;;;;;12.20;100.00;97402.69;5032214;28;20048;-75
2023/05/11 10:21:02;;;;;;;1999.90;999.90;;;;;;;12.12;100.00;97388.97;5032458;28;20034;-74
2023/05/11 10:23:29;;;;;;;1999.90;999.90;;;;;;;12.26;100.00;97379.47;5032517;28;20029;-74
2023/05/11 10:25:56;;;;;;;1999.90;999.90;;;;;;;12.22;100.00;97399.63;5032447;28;20029;-74
2023/05/11 10:28:21;;;;;;;1999.90;999.90;;;;;;;12.11;100.00;97401.06;5032514;28;20040;-74
2023/05/11 10:30:47;;;;;;;1999.90;999.90;;;;;;;12.12;100.00;97391.72;5032594;28;20021;-75
2023/05/11 10:33:13;;;;;;;1999.90;999.90;;;;;;;12.05;100.00;97399.59;5032436;28;20026;-74
2023/05/11 10:35:38;;;;;;;1999.90;999.90;;;;;;;12.18;100.00;97395.91;5032169;28;20025;-75
2023/05/11 10:38:06;;;;;;;1999.90;999.90;;;;;;;12.27;100.00;97394.00;5032181;28;20516;-74
2023/05/11 10:40:40;;;;;;;1999.90;999.90;;;;;;;12.20;100.00;97390.91;5032045;28;20111;-74
2023/05/11 10:43:18;;;;;;;1999.90;999.90;;;;;;;12.13;100.00;97394.13;5032394;28;20032;-74
2023/05/11 10:45:56;;;;;;;1999.90;999.90;;;;;;;12.09;100.00;97404.09;5032004;28;20076;-74
2023/05/11 10:48:53;;;;;;;1999.90;999.90;;;;;;;11.98;100.00;97402.78;5032472;28;20116;-74